createdAt,value
2022-12-04T00:01:16.583Z,5.77
2022-12-04T00:03:44.444Z,5.76
2022-12-04T00:06:14.349Z,5.74
2022-12-04T00:08:42.577Z,5.71
2022-12-04T00:11:11.914Z,5.74
2022-12-04T00:13:40.063Z,5.72
2022-12-04T00:16:12.062Z,5.69
2022-12-04T00:18:39.812Z,5.71
2022-12-04T00:21:08.819Z,5.67
2022-12-04T00:23:37.981Z,5.68
2022-12-04T00:26:10.820Z,5.66
2022-12-04T00:28:38.833Z,5.66
2022-12-04T00:31:07.902Z,5.68
2022-12-04T00:33:37.549Z,5.69
2022-12-04T00:36:07.478Z,5.68
2022-12-04T00:38:35.587Z,5.66
2022-12-04T00:41:03.297Z,5.64
2022-12-04T00:43:32.156Z,5.62
2022-12-04T00:45:59.890Z,5.62
2022-12-04T00:48:28.032Z,5.62
2022-12-04T00:50:59.014Z,5.64
2022-12-04T00:53:26.700Z,5.65
2022-12-04T00:55:54.362Z,5.63
2022-12-04T00:58:22.044Z,5.62
2022-12-04T01:00:49.768Z,5.64
2022-12-04T01:03:17.591Z,5.62
2022-12-04T01:05:46.735Z,5.64
2022-12-04T01:08:15.804Z,5.61
2022-12-04T01:10:43.533Z,5.61
2022-12-04T01:13:11.421Z,5.61
2022-12-04T01:15:40.371Z,5.60
2022-12-04T01:18:08.517Z,5.61
2022-12-04T01:20:36.205Z,5.59
2022-12-04T01:23:04.363Z,5.57
2022-12-04T01:25:33.715Z,5.58
2022-12-04T01:28:01.436Z,5.60
2022-12-04T01:30:29.577Z,5.58
2022-12-04T01:32:57.247Z,5.56
2022-12-04T01:35:24.917Z,5.56
2022-12-04T01:37:52.584Z,5.55
2022-12-04T01:40:21.131Z,5.55
2022-12-04T01:42:50.134Z,5.56
2022-12-04T01:45:39.632Z,5.59
2022-12-04T01:48:13.885Z,5.57
2022-12-04T01:50:42.570Z,5.57
2022-12-04T01:53:10.375Z,5.54
2022-12-04T01:55:38.344Z,5.54
2022-12-04T01:58:08.474Z,5.54
2022-12-04T02:00:36.277Z,5.53
2022-12-04T02:03:04.099Z,5.52
2022-12-04T02:05:31.766Z,5.51
2022-12-04T02:08:03.160Z,5.49
2022-12-04T02:10:41.189Z,5.53
2022-12-04T02:13:17.925Z,5.50
2022-12-04T02:15:52.754Z,5.52
2022-12-04T02:18:30.439Z,5.50
2022-12-04T02:21:06.921Z,5.47
2022-12-04T02:23:56.946Z,5.48
2022-12-04T02:26:40.979Z,5.49
2022-12-04T02:29:17.877Z,5.51
2022-12-04T02:31:52.501Z,5.51
2022-12-04T02:34:27.431Z,5.51
2022-12-04T02:37:00.925Z,5.50
2022-12-04T02:39:36.426Z,5.50
2022-12-04T02:42:09.116Z,5.49
2022-12-04T02:44:42.585Z,5.49
2022-12-04T02:47:13.637Z,5.48
2022-12-04T02:49:46.120Z,5.47
2022-12-04T02:52:19.398Z,5.44
2022-12-04T02:54:51.544Z,5.46
2022-12-04T02:57:23.234Z,5.48
2022-12-04T02:59:55.006Z,5.45
2022-12-04T03:02:29.443Z,5.45
2022-12-04T03:05:01.947Z,5.41
2022-12-04T03:07:36.327Z,5.43
2022-12-04T03:10:10.956Z,5.41
2022-12-04T03:12:43.630Z,5.43
2022-12-04T03:15:19.161Z,5.44
2022-12-04T03:17:53.545Z,5.42
2022-12-04T03:20:23.021Z,5.41
2022-12-04T03:22:55.570Z,5.42
2022-12-04T03:25:36.247Z,5.36
2022-12-04T03:28:08.405Z,5.41
2022-12-04T03:30:45.303Z,5.39
2022-12-04T03:33:16.274Z,5.40
2022-12-04T03:35:48.655Z,5.39
2022-12-04T03:38:21.526Z,5.39
2022-12-04T03:40:55.569Z,5.38
2022-12-04T03:43:29.105Z,5.38
2022-12-04T03:46:04.387Z,5.41
2022-12-04T03:48:39.869Z,5.37
2022-12-04T03:51:19.370Z,5.38
2022-12-04T03:53:52.502Z,5.37
2022-12-04T03:56:23.978Z,5.37
2022-12-04T03:58:56.815Z,5.34
2022-12-04T04:01:34.047Z,5.36
2022-12-04T04:04:05.166Z,5.36
2022-12-04T04:06:39.990Z,5.35
2022-12-04T04:09:15.485Z,5.38
2022-12-04T04:11:48.493Z,5.36
2022-12-04T04:14:39.917Z,5.34
2022-12-04T04:17:37.943Z,5.32
2022-12-04T04:20:27.681Z,5.32
2022-12-04T04:23:17.138Z,5.30
2022-12-04T04:25:46.642Z,5.31
2022-12-04T04:28:34.967Z,5.31
2022-12-04T04:31:11.175Z,5.33
2022-12-04T04:33:49.365Z,5.32
2022-12-04T04:36:24.442Z,5.31
2022-12-04T04:39:01.839Z,5.30
2022-12-04T04:41:37.408Z,5.27
2022-12-04T04:44:16.476Z,5.30
2022-12-04T04:46:49.020Z,5.33
2022-12-04T04:49:19.522Z,5.30
2022-12-04T04:51:48.246Z,5.32
2022-12-04T04:54:17.842Z,5.30
2022-12-04T04:56:47.331Z,5.30
2022-12-04T04:59:16.027Z,5.32
2022-12-04T05:01:46.885Z,5.30
2022-12-04T05:04:14.838Z,5.29
2022-12-04T05:06:43.866Z,5.29
2022-12-04T05:09:11.590Z,5.27
2022-12-04T05:11:39.304Z,5.26
2022-12-04T05:14:07.025Z,5.26
2022-12-04T05:16:34.759Z,5.26
2022-12-04T05:19:20.310Z,5.28
2022-12-04T05:21:49.332Z,5.27
2022-12-04T05:24:16.968Z,5.26
2022-12-04T05:26:44.775Z,5.27
2022-12-04T05:29:12.465Z,5.28
2022-12-04T05:31:40.194Z,5.29
2022-12-04T05:34:07.917Z,5.29
2022-12-04T05:36:35.554Z,5.28
2022-12-04T05:39:04.751Z,5.29
2022-12-04T05:41:32.437Z,5.26
2022-12-04T05:44:00.120Z,5.24
2022-12-04T05:46:27.823Z,5.26
2022-12-04T05:48:55.551Z,5.24
2022-12-04T05:51:23.191Z,5.26
2022-12-04T05:53:53.002Z,5.24
2022-12-04T05:56:22.496Z,5.22
2022-12-04T05:58:50.157Z,5.22
2022-12-04T06:01:20.344Z,5.20
2022-12-04T06:03:48.002Z,5.29
2022-12-04T06:06:21.433Z,5.43
2022-12-04T06:08:50.647Z,5.59
2022-12-04T06:11:20.974Z,5.72
2022-12-04T06:13:50.212Z,5.88
2022-12-04T06:16:20.324Z,6.00
2022-12-04T06:18:51.567Z,6.13
2022-12-04T06:21:20.623Z,6.29
2022-12-04T06:23:48.728Z,6.49
2022-12-04T06:26:16.649Z,6.65
2022-12-04T06:28:44.532Z,6.77
2022-12-04T06:31:15.901Z,6.88
2022-12-04T06:33:43.705Z,6.93
2022-12-04T06:36:13.377Z,6.92
2022-12-04T06:38:41.565Z,6.82
2022-12-04T06:41:11.049Z,6.64
2022-12-04T06:43:38.896Z,6.45
2022-12-04T06:46:08.552Z,6.29
2022-12-04T06:48:38.261Z,6.18
2022-12-04T06:51:08.270Z,6.11
2022-12-04T06:53:36.477Z,6.02
2022-12-04T06:56:18.077Z,5.87
2022-12-04T06:58:46.005Z,5.93
2022-12-04T07:01:16.138Z,5.88
2022-12-04T07:03:51.040Z,5.84
2022-12-04T07:06:22.008Z,5.79
2022-12-04T07:08:52.791Z,5.75
2022-12-04T07:11:22.055Z,5.68
2022-12-04T07:13:50.098Z,5.67
2022-12-04T07:16:20.740Z,5.64
2022-12-04T07:18:53.285Z,5.62
2022-12-04T07:21:23.041Z,5.60
2022-12-04T07:23:51.720Z,5.59
2022-12-04T07:26:19.945Z,5.57
2022-12-04T07:28:48.101Z,5.57
2022-12-04T07:31:17.928Z,5.56
2022-12-04T07:33:46.665Z,5.50
2022-12-04T07:36:19.350Z,5.54
2022-12-04T07:38:47.961Z,5.70
2022-12-04T07:41:16.682Z,5.84
2022-12-04T07:43:44.665Z,6.00
2022-12-04T07:46:14.613Z,6.18
2022-12-04T07:48:42.413Z,6.33
2022-12-04T07:51:12.252Z,6.39
2022-12-04T07:53:42.021Z,6.48
2022-12-04T07:56:11.959Z,6.43
2022-12-04T07:58:40.153Z,6.36
2022-12-04T08:01:10.025Z,6.26
2022-12-04T08:03:42.114Z,6.17
2022-12-04T08:06:13.817Z,6.06
2022-12-04T08:08:42.887Z,6.00
2022-12-04T08:11:12.633Z,5.93
2022-12-04T08:13:40.387Z,5.90
2022-12-04T08:16:10.941Z,5.87
2022-12-04T08:18:39.964Z,5.82
2022-12-04T08:21:10.192Z,5.80
2022-12-04T08:23:41.375Z,5.76
2022-12-04T08:26:11.095Z,5.74
2022-12-04T08:28:38.846Z,5.71
2022-12-04T08:31:08.655Z,5.68
2022-12-04T08:33:36.651Z,5.67
2022-12-04T08:36:07.552Z,5.65
2022-12-04T08:38:35.671Z,5.63
2022-12-04T08:41:04.327Z,5.57
2022-12-04T08:43:33.857Z,5.55
2022-12-04T08:46:03.897Z,5.55
2022-12-04T08:48:32.372Z,5.56
2022-12-04T08:51:00.448Z,5.55
2022-12-04T08:53:28.451Z,5.54
2022-12-04T08:55:56.093Z,5.53
2022-12-04T08:58:24.464Z,5.53
2022-12-04T09:00:53.500Z,5.52
2022-12-04T09:03:26.210Z,5.51
2022-12-04T09:06:00.182Z,5.53
2022-12-04T09:08:28.041Z,5.53
2022-12-04T09:10:55.785Z,5.54
2022-12-04T09:13:23.481Z,5.49
2022-12-04T09:15:51.133Z,5.51
2022-12-04T09:18:20.169Z,5.48
2022-12-04T09:20:56.528Z,5.48
2022-12-04T09:23:24.200Z,5.46
2022-12-04T09:25:52.234Z,5.48
2022-12-04T09:28:20.446Z,5.51
2022-12-04T09:30:57.556Z,5.66
2022-12-04T09:33:26.876Z,5.72
2022-12-04T09:35:54.605Z,5.71
2022-12-04T09:38:22.339Z,5.74
2022-12-04T09:40:59.091Z,5.75
2022-12-04T09:43:33.314Z,5.71
2022-12-04T09:46:08.820Z,5.71
2022-12-04T09:48:42.959Z,5.86
2022-12-04T09:51:18.717Z,6.00
2022-12-04T09:53:49.834Z,6.13
2022-12-04T09:56:20.763Z,6.27
2022-12-04T09:58:51.904Z,6.42
2022-12-04T10:01:24.607Z,6.59
2022-12-04T10:03:56.926Z,6.75
2022-12-04T10:06:33.262Z,6.93
2022-12-04T10:09:04.915Z,7.06
2022-12-04T10:11:45.586Z,7.08
2022-12-04T10:14:38.825Z,6.99
2022-12-04T10:17:32.242Z,6.80
2022-12-04T10:20:12.771Z,6.58
2022-12-04T10:22:54.655Z,6.41
2022-12-04T10:25:23.432Z,6.30
2022-12-04T10:27:56.944Z,6.23
2022-12-04T10:30:27.026Z,6.17
2022-12-04T10:32:59.145Z,6.14
2022-12-04T10:35:30.997Z,6.22
2022-12-04T10:38:04.133Z,6.38
2022-12-04T10:40:36.775Z,6.54
2022-12-04T10:43:13.141Z,6.72
2022-12-04T10:45:40.917Z,6.85
2022-12-04T10:48:13.309Z,6.96
2022-12-04T10:50:42.390Z,6.94
2022-12-04T10:53:14.091Z,6.81
2022-12-04T10:55:42.242Z,6.64
2022-12-04T10:58:16.817Z,6.52
2022-12-04T11:00:46.795Z,6.41
2022-12-04T11:03:25.752Z,6.31
2022-12-04T11:05:59.362Z,6.26
2022-12-04T11:08:32.049Z,6.20
2022-12-04T11:11:02.365Z,6.18
2022-12-04T11:13:30.320Z,6.14
2022-12-04T11:15:59.297Z,6.05
2022-12-04T11:18:28.641Z,6.05
2022-12-04T11:21:00.512Z,6.02
2022-12-04T11:23:33.142Z,5.98
2022-12-04T11:26:05.828Z,5.91
2022-12-04T11:28:43.321Z,5.90
2022-12-04T11:31:12.034Z,5.87
2022-12-04T11:33:45.883Z,5.84
2022-12-04T11:36:23.148Z,5.96
2022-12-04T11:38:52.739Z,6.09
2022-12-04T11:41:28.655Z,6.24
2022-12-04T11:44:00.223Z,6.36
2022-12-04T11:46:30.490Z,6.55
2022-12-04T11:48:59.143Z,6.63
2022-12-04T11:51:44.780Z,6.80
2022-12-04T11:54:23.155Z,6.94
2022-12-04T11:57:03.005Z,7.12
2022-12-04T11:59:44.032Z,7.28
2022-12-04T12:02:32.133Z,7.33
2022-12-04T12:05:32.817Z,7.31
2022-12-04T12:08:13.862Z,7.47
2022-12-04T12:10:49.286Z,7.51
2022-12-04T12:13:27.272Z,7.52
2022-12-04T12:16:05.868Z,7.52
2022-12-04T12:18:53.557Z,7.62
2022-12-04T12:21:26.281Z,7.61
2022-12-04T12:24:10.609Z,7.61
2022-12-04T12:26:47.057Z,7.62
2022-12-04T12:29:31.386Z,7.54
2022-12-04T12:32:11.222Z,7.40
2022-12-04T12:34:41.179Z,7.24
2022-12-04T12:37:23.109Z,7.07
2022-12-04T12:40:01.015Z,6.89
2022-12-04T12:42:34.694Z,6.79
2022-12-04T12:45:07.439Z,6.67
2022-12-04T12:47:42.068Z,6.58
2022-12-04T12:50:17.479Z,6.52
2022-12-04T12:52:51.687Z,6.44
2022-12-04T12:55:25.074Z,6.32
2022-12-04T12:58:01.043Z,6.26
2022-12-04T13:00:33.068Z,6.34
2022-12-04T13:03:04.921Z,6.48
2022-12-04T13:05:38.566Z,6.64
2022-12-04T13:08:18.822Z,6.82
2022-12-04T13:10:54.740Z,6.91
2022-12-04T13:13:27.541Z,7.07
2022-12-04T13:15:58.566Z,7.18
2022-12-04T13:18:29.814Z,7.31
2022-12-04T13:21:00.636Z,7.29
2022-12-04T13:23:45.836Z,7.21
2022-12-04T13:26:28.221Z,7.08
2022-12-04T13:29:04.104Z,6.93
2022-12-04T13:31:39.189Z,6.82
2022-12-04T13:34:24.797Z,6.74
2022-12-04T13:37:03.805Z,6.66
2022-12-04T13:40:15.828Z,6.60
2022-12-04T13:42:45.308Z,6.57
2022-12-04T13:45:25.851Z,6.67
2022-12-04T13:47:58.508Z,6.82
2022-12-04T13:50:31.877Z,6.95
2022-12-04T13:53:00.748Z,7.06
2022-12-04T13:55:32.109Z,7.18
2022-12-04T13:58:03.527Z,7.26
2022-12-04T14:00:33.900Z,7.27
2022-12-04T14:03:05.667Z,7.25
2022-12-04T14:05:41.113Z,7.22
2022-12-04T14:08:24.947Z,7.12
2022-12-04T14:11:01.973Z,7.03
2022-12-04T14:13:45.406Z,6.96
2022-12-04T14:16:23.424Z,6.93
2022-12-04T14:18:54.107Z,6.90
2022-12-04T14:21:22.177Z,6.85
2022-12-04T14:23:50.740Z,6.79
2022-12-04T14:26:48.797Z,6.76
2022-12-04T14:29:35.562Z,6.77
2022-12-04T14:32:10.761Z,6.73
2022-12-04T14:34:39.021Z,6.77
2022-12-04T14:37:07.774Z,6.75
2022-12-04T14:39:40.894Z,6.74
2022-12-04T14:42:15.578Z,6.73
2022-12-04T14:44:47.192Z,6.68
2022-12-04T14:47:27.003Z,6.58
2022-12-04T14:50:10.313Z,6.63
2022-12-04T14:52:43.958Z,6.58
2022-12-04T14:55:23.640Z,6.54
2022-12-04T14:57:56.585Z,6.56
2022-12-04T15:00:26.938Z,6.53
2022-12-04T15:02:57.642Z,6.53
2022-12-04T15:05:28.252Z,6.50
2022-12-04T15:08:00.219Z,6.50
2022-12-04T15:10:47.404Z,6.46
2022-12-04T15:13:26.717Z,6.46
2022-12-04T15:15:55.992Z,6.43
2022-12-04T15:18:23.964Z,6.42
2022-12-04T15:20:57.773Z,6.38
2022-12-04T15:23:30.145Z,6.33
2022-12-04T15:25:59.970Z,6.36
2022-12-04T15:28:32.922Z,6.38
2022-12-04T15:31:06.168Z,6.39
2022-12-04T15:33:38.940Z,6.43
2022-12-04T15:36:10.575Z,6.43
2022-12-04T15:38:38.526Z,6.42
2022-12-04T15:41:06.403Z,6.39
2022-12-04T15:43:41.019Z,6.26
2022-12-04T15:46:16.095Z,6.29
2022-12-04T15:48:47.665Z,6.25
2022-12-04T15:51:17.228Z,6.14
2022-12-04T15:53:47.063Z,6.15
2022-12-04T15:56:19.785Z,6.19
2022-12-04T15:58:55.850Z,6.18
2022-12-04T16:01:25.470Z,6.19
2022-12-04T16:03:55.564Z,6.19
2022-12-04T16:06:25.756Z,6.25
2022-12-04T16:08:55.410Z,6.26
2022-12-04T16:11:32.441Z,6.26
2022-12-04T16:14:05.036Z,6.27
2022-12-04T16:16:34.162Z,6.29
2022-12-04T16:19:03.250Z,6.27
2022-12-04T16:21:32.757Z,6.27
2022-12-04T16:24:03.296Z,6.24
2022-12-04T16:26:30.993Z,6.22
2022-12-04T16:28:59.273Z,6.16
2022-12-04T16:31:27.788Z,6.29
2022-12-04T16:33:56.941Z,6.39
2022-12-04T16:36:24.631Z,6.50
2022-12-04T16:38:52.277Z,6.66
2022-12-04T16:41:21.207Z,6.79
2022-12-04T16:43:54.241Z,6.97
2022-12-04T16:46:24.491Z,7.09
2022-12-04T16:48:52.228Z,7.25
2022-12-04T16:51:24.126Z,7.42
2022-12-04T16:53:53.111Z,7.49
2022-12-04T16:56:24.356Z,7.64
2022-12-04T16:58:52.086Z,7.70
2022-12-04T17:01:23.519Z,7.81
2022-12-04T17:03:51.404Z,7.88
2022-12-04T17:06:19.838Z,7.85
2022-12-04T17:08:48.933Z,7.93
2022-12-04T17:11:18.266Z,7.96
2022-12-04T17:13:46.536Z,8.00
2022-12-04T17:16:18.471Z,7.98
2022-12-04T17:18:47.534Z,7.98
2022-12-04T17:21:15.587Z,7.88
2022-12-04T17:23:43.935Z,7.74
2022-12-04T17:26:16.063Z,7.57
2022-12-04T17:28:44.656Z,7.44
2022-12-04T17:31:15.513Z,7.32
2022-12-04T17:33:44.066Z,7.24
2022-12-04T17:36:13.348Z,7.15
2022-12-04T17:38:41.776Z,7.09
2022-12-04T17:41:13.664Z,7.03
2022-12-04T17:43:43.694Z,6.88
2022-12-04T17:46:12.469Z,6.84
2022-12-04T17:48:40.592Z,6.84
2022-12-04T17:51:10.384Z,6.89
2022-12-04T17:53:39.304Z,6.95
2022-12-04T17:56:09.165Z,6.95
2022-12-04T17:58:37.766Z,6.99
2022-12-04T18:01:09.535Z,7.07
2022-12-04T18:03:38.603Z,7.18
2022-12-04T18:06:13.822Z,7.35
2022-12-04T18:08:45.297Z,7.50
2022-12-04T18:11:18.719Z,7.67
2022-12-04T18:13:46.462Z,7.81
2022-12-04T18:16:15.598Z,7.81
2022-12-04T18:18:46.621Z,7.72
2022-12-04T18:21:15.457Z,7.59
2022-12-04T18:23:45.179Z,7.46
2022-12-04T18:26:14.247Z,7.39
2022-12-04T18:28:42.346Z,7.24
2022-12-04T18:31:11.076Z,7.16
2022-12-04T18:33:42.200Z,7.14
2022-12-04T18:36:14.420Z,7.13
2022-12-04T18:38:42.152Z,7.08
2022-12-04T18:41:12.423Z,7.04
2022-12-04T18:43:41.873Z,6.98
2022-12-04T18:46:13.342Z,6.97
2022-12-04T18:48:43.384Z,6.98
2022-12-04T18:51:20.364Z,7.01
2022-12-04T18:53:48.092Z,7.17
2022-12-04T18:56:16.258Z,7.27
2022-12-04T18:58:44.621Z,7.40
2022-12-04T19:01:14.831Z,7.54
2022-12-04T19:03:43.962Z,7.67
2022-12-04T19:06:12.278Z,7.70
2022-12-04T19:08:43.873Z,7.69
2022-12-04T19:11:13.446Z,7.61
2022-12-04T19:13:41.786Z,7.47
2022-12-04T19:16:13.055Z,7.34
2022-12-04T19:18:42.107Z,7.21
2022-12-04T19:21:11.197Z,7.17
2022-12-04T19:23:38.865Z,7.09
2022-12-04T19:26:06.895Z,7.02
2022-12-04T19:28:34.646Z,6.84
2022-12-04T19:31:02.380Z,6.90
2022-12-04T19:33:30.376Z,6.85
2022-12-04T19:36:00.043Z,6.79
2022-12-04T19:38:29.978Z,6.68
2022-12-04T19:41:06.326Z,6.66
2022-12-04T19:43:34.102Z,6.66
2022-12-04T19:46:02.508Z,6.64
2022-12-04T19:48:30.249Z,6.56
2022-12-04T19:51:03.463Z,6.54
2022-12-04T19:53:37.667Z,6.51
2022-12-04T19:56:10.880Z,6.53
2022-12-04T19:58:39.014Z,6.48
2022-12-04T20:01:08.643Z,6.46
2022-12-04T20:03:37.143Z,6.44
2022-12-04T20:06:05.694Z,6.44
2022-12-04T20:08:35.258Z,6.38
2022-12-04T20:11:04.214Z,6.40
2022-12-04T20:13:32.025Z,6.41
2022-12-04T20:16:02.614Z,6.38
2022-12-04T20:18:30.366Z,6.41
2022-12-04T20:20:59.881Z,6.40
2022-12-04T20:23:28.022Z,6.37
2022-12-04T20:25:57.037Z,6.39
2022-12-04T20:28:24.769Z,6.33
2022-12-04T20:30:52.586Z,6.33
2022-12-04T20:33:20.298Z,6.36
2022-12-04T20:35:48.215Z,6.36
2022-12-04T20:38:15.949Z,6.30
2022-12-04T20:40:43.671Z,6.27
2022-12-04T20:43:12.703Z,6.31
2022-12-04T20:45:40.450Z,6.31
2022-12-04T20:48:08.210Z,6.33
2022-12-04T20:50:35.965Z,6.31
2022-12-04T20:53:03.678Z,6.32
2022-12-04T20:55:31.395Z,6.29
2022-12-04T20:57:59.104Z,6.30
2022-12-04T21:00:28.593Z,6.28
2022-12-04T21:02:56.369Z,6.26
2022-12-04T21:05:24.269Z,6.23
2022-12-04T21:07:51.981Z,6.23
2022-12-04T21:10:19.713Z,6.26
2022-12-04T21:13:05.149Z,6.28
2022-12-04T21:15:51.824Z,6.30
2022-12-04T21:18:19.522Z,6.23
2022-12-04T21:20:47.202Z,6.31
2022-12-04T21:23:14.924Z,6.28
2022-12-04T21:25:42.646Z,6.28
2022-12-04T21:28:10.386Z,6.27
2022-12-04T21:30:39.397Z,6.30
2022-12-04T21:33:07.020Z,6.30
2022-12-04T21:35:34.744Z,6.27
2022-12-04T21:38:02.422Z,6.26
2022-12-04T21:40:30.119Z,6.27
2022-12-04T21:42:57.806Z,6.26
2022-12-04T21:45:25.489Z,6.26
2022-12-04T21:47:54.498Z,6.26
2022-12-04T21:50:22.228Z,6.26
2022-12-04T21:52:49.895Z,6.25
2022-12-04T21:55:17.806Z,6.22
2022-12-04T21:57:45.473Z,6.24
2022-12-04T22:00:14.681Z,6.23
2022-12-04T22:02:42.428Z,6.23
2022-12-04T22:05:11.598Z,6.22
2022-12-04T22:07:39.379Z,6.22
2022-12-04T22:10:10.847Z,6.22
2022-12-04T22:12:49.580Z,6.17
2022-12-04T22:15:18.379Z,6.15
2022-12-04T22:17:46.047Z,6.15
2022-12-04T22:20:16.471Z,6.08
2022-12-04T22:22:44.105Z,6.06
2022-12-04T22:25:11.744Z,6.11
2022-12-04T22:27:39.432Z,6.10
2022-12-04T22:30:08.585Z,6.09
2022-12-04T22:32:36.300Z,6.11
2022-12-04T22:35:04.029Z,6.07
2022-12-04T22:37:33.103Z,6.10
2022-12-04T22:40:00.814Z,6.11
2022-12-04T22:42:28.736Z,6.06
2022-12-04T22:44:56.458Z,6.07
2022-12-04T22:47:24.141Z,6.06
2022-12-04T22:49:51.930Z,6.04
2022-12-04T22:52:19.976Z,6.07
2022-12-04T22:54:51.117Z,6.01
2022-12-04T22:57:18.961Z,5.95
2022-12-04T22:59:46.814Z,6.00
2022-12-04T23:02:14.593Z,6.04
2022-12-04T23:04:43.585Z,6.06
2022-12-04T23:07:11.312Z,6.07
2022-12-04T23:09:39.379Z,6.05
2022-12-04T23:12:08.649Z,6.09
2022-12-04T23:14:36.920Z,6.10
2022-12-04T23:17:04.985Z,6.09
2022-12-04T23:19:32.700Z,6.10
2022-12-04T23:22:00.588Z,6.08
2022-12-04T23:24:28.333Z,6.07
2022-12-04T23:26:55.976Z,6.07
2022-12-04T23:32:12.674Z,5.96
2022-12-04T23:34:40.444Z,6.00
2022-12-04T23:37:08.155Z,6.05
2022-12-04T23:39:35.892Z,6.03
2022-12-04T23:42:03.579Z,6.05
2022-12-04T23:44:32.839Z,6.00
2022-12-04T23:47:00.610Z,6.05
2022-12-04T23:49:29.215Z,6.06
2022-12-04T23:51:56.871Z,6.06
2022-12-04T23:54:24.522Z,6.05
2022-12-04T23:56:52.201Z,6.05
2022-12-04T23:59:21.933Z,6.05
